Time;durP1;ratioP1;P1;durP2;ratioP2;P2;SDS_P1;SDS_P2;PMS_P1;PMS_P2;Temp;Humidity;BMP_temperature;BMP_pressure;BME280_temperature;BME280_humidity;BME280_pressure;Samples;Min_cycle;Max_cycle;Signal;HPM_P1;HPM_P2
2023/09/18 00:01:15;;;;;;;3.75;2.55;;;21.80;99.90;;;;;;5045365;28;20709;-66
2023/09/18 00:03:42;;;;;;;2.58;2.30;;;21.90;99.90;;;;;;5045363;28;20277;-64
2023/09/18 00:06:11;;;;;;;2.78;2.47;;;21.90;99.90;;;;;;5043217;28;20205;-64
2023/09/18 00:08:40;;;;;;;4.65;2.47;;;21.90;99.90;;;;;;5041802;28;20354;-63
2023/09/18 00:11:07;;;;;;;3.78;2.30;;;21.80;99.90;;;;;;5044024;28;20194;-64
2023/09/18 00:13:35;;;;;;;3.92;2.60;;;21.90;99.90;;;;;;5044920;28;20205;-64
2023/09/18 00:16:03;;;;;;;3.33;2.30;;;21.80;99.90;;;;;;5044014;28;20205;-65
2023/09/18 00:18:30;;;;;;;3.45;2.40;;;21.80;99.90;;;;;;5041962;28;20285;-65
2023/09/18 00:20:57;;;;;;;3.45;2.80;;;21.80;99.90;;;;;;5042221;28;20229;-65
2023/09/18 00:23:24;;;;;;;3.03;2.22;;;21.80;99.90;;;;;;5045272;28;20205;-64
2023/09/18 00:25:51;;;;;;;2.60;2.33;;;21.80;99.90;;;;;;5045015;28;20583;-65
2023/09/18 00:28:17;;;;;;;3.67;2.55;;;21.80;99.90;;;;;;5041506;28;20210;-64
2023/09/18 00:30:49;;;;;;;2.78;2.22;;;21.70;99.90;;;;;;5041325;28;20222;-64
2023/09/18 00:33:16;;;;;;;3.45;2.50;;;21.80;99.90;;;;;;5044622;28;20659;-64
2023/09/18 00:35:46;;;;;;;6.35;2.40;;;21.90;99.90;;;;;;5044678;28;20288;-64
2023/09/18 00:38:13;;;;;;;2.88;2.50;;;21.90;99.90;;;;;;5042114;28;20221;-64
2023/09/18 00:40:40;;;;;;;3.58;2.40;;;21.80;99.90;;;;;;5041239;28;20581;-64
2023/09/18 00:43:07;;;;;;;2.72;2.33;;;21.80;99.90;;;;;;5042942;28;20723;-64
2023/09/18 00:45:34;;;;;;;4.90;2.70;;;21.90;99.90;;;;;;5044889;28;20208;-64
2023/09/18 00:48:02;;;;;;;5.97;2.60;;;21.90;99.90;;;;;;5043770;28;20205;-64
2023/09/18 00:50:29;;;;;;;4.15;2.50;;;21.90;99.90;;;;;;5041382;28;20233;-64
2023/09/18 00:52:56;;;;;;;2.70;2.50;;;21.90;99.90;;;;;;5041344;28;20679;-64
2023/09/18 00:55:23;;;;;;;2.97;2.30;;;21.90;99.90;;;;;;5044585;28;20206;-64
2023/09/18 00:57:50;;;;;;;2.67;2.47;;;21.90;99.90;;;;;;5044624;28;20249;-64
2023/09/18 01:00:17;;;;;;;2.63;2.42;;;22.00;99.90;;;;;;5041239;28;20229;-64
2023/09/18 01:02:45;;;;;;;2.53;1.90;;;22.00;99.90;;;;;;5040743;28;20219;-65
2023/09/18 01:05:16;;;;;;;2.80;2.50;;;22.00;99.90;;;;;;5043263;28;20245;-64
2023/09/18 01:07:43;;;;;;;2.97;2.20;;;22.00;99.90;;;;;;5044523;28;20541;-70
2023/09/18 01:10:15;;;;;;;2.50;2.30;;;22.00;99.90;;;;;;5042185;28;20234;-64
2023/09/18 01:12:47;;;;;;;3.38;2.20;;;22.10;99.90;;;;;;5040768;28;20198;-65
2023/09/18 01:15:20;;;;;;;2.70;2.42;;;22.00;99.90;;;;;;5043497;28;20214;-64
2023/09/18 01:17:47;;;;;;;3.13;2.72;;;21.90;99.90;;;;;;5044153;28;20202;-64
2023/09/18 01:20:15;;;;;;;3.13;2.50;;;21.90;99.90;;;;;;5041109;28;20245;-64
2023/09/18 01:22:44;;;;;;;2.45;2.00;;;21.90;99.90;;;;;;5040706;28;20249;-64
2023/09/18 01:25:11;;;;;;;3.10;2.40;;;22.00;99.90;;;;;;5042740;28;20333;-64
2023/09/18 01:27:38;;;;;;;2.58;2.38;;;22.00;99.90;;;;;;5045183;28;20683;-65
2023/09/18 01:30:05;;;;;;;4.10;2.83;;;22.00;99.90;;;;;;5043648;28;20222;-65
2023/09/18 01:32:33;;;;;;;4.45;2.45;;;22.00;99.90;;;;;;5041444;28;20203;-64
2023/09/18 01:35:03;;;;;;;2.90;2.47;;;22.10;99.90;;;;;;5041943;28;20198;-64
2023/09/18 01:37:34;;;;;;;3.67;2.70;;;22.20;99.90;;;;;;5042695;28;20217;-64
2023/09/18 01:40:06;;;;;;;3.13;2.38;;;22.40;99.90;;;;;;5042782;28;20221;-64
2023/09/18 01:42:34;;;;;;;2.70;2.40;;;22.50;99.90;;;;;;5039737;28;20254;-63
2023/09/18 01:45:00;;;;;;;2.58;2.38;;;22.60;99.90;;;;;;5040933;28;20209;-64
2023/09/18 01:47:27;;;;;;;5.90;2.83;;;22.70;99.90;;;;;;5043826;28;20205;-64
2023/09/18 01:49:54;;;;;;;4.53;2.33;;;22.70;99.90;;;;;;5036208;28;20241;-64
2023/09/18 01:52:21;;;;;;;3.53;2.90;;;22.80;99.90;;;;;;5040546;28;20593;-65
2023/09/18 01:54:48;;;;;;;3.17;2.20;;;22.80;99.90;;;;;;5040311;28;20517;-66
2023/09/18 01:57:16;;;;;;;4.20;2.53;;;22.90;99.90;;;;;;5042800;28;20206;-65
2023/09/18 01:59:44;;;;;;;2.42;2.22;;;22.90;99.90;;;;;;5043462;28;20228;-65
2023/09/18 02:02:12;;;;;;;6.18;2.40;;;22.80;99.90;;;;;;5041269;28;20789;-65
2023/09/18 02:04:39;;;;;;;2.63;2.40;;;22.80;99.90;;;;;;5039942;28;20199;-65
2023/09/18 02:07:07;;;;;;;2.83;2.47;;;22.90;99.90;;;;;;5041290;28;20206;-64
2023/09/18 02:09:33;;;;;;;2.65;2.30;;;22.90;99.90;;;;;;5043498;28;20225;-64
2023/09/18 02:12:00;;;;;;;5.13;2.65;;;22.90;99.90;;;;;;5042593;28;20663;-65
2023/09/18 02:14:31;;;;;;;3.63;2.20;;;22.90;99.90;;;;;;5039611;28;20202;-64
2023/09/18 02:16:57;;;;;;;2.70;2.00;;;23.00;99.90;;;;;;5040007;28;20324;-64
2023/09/18 02:19:24;;;;;;;3.47;2.10;;;23.10;99.90;;;;;;5042928;28;20217;-65
2023/09/18 02:21:51;;;;;;;4.22;2.35;;;23.10;99.90;;;;;;5044111;28;20226;-64
2023/09/18 02:24:17;;;;;;;3.50;1.90;;;23.20;99.90;;;;;;5042432;28;20201;-64
2023/09/18 02:26:45;;;;;;;6.18;2.30;;;23.30;99.90;;;;;;5043330;28;20201;-65
2023/09/18 02:29:13;;;;;;;10.02;2.58;;;23.40;99.90;;;;;;5041927;28;20239;-65
2023/09/18 02:31:42;;;;;;;4.97;2.10;;;23.50;99.90;;;;;;5040834;28;20256;-64
2023/09/18 02:34:08;;;;;;;5.47;2.28;;;23.20;99.90;;;;;;5041878;28;20236;-65
2023/09/18 02:36:35;;;;;;;5.57;2.40;;;23.20;99.90;;;;;;5044000;28;20737;-64
2023/09/18 02:39:03;;;;;;;6.53;2.28;;;23.20;99.90;;;;;;5043038;28;20221;-64
2023/09/18 02:41:30;;;;;;;5.47;2.13;;;23.20;99.90;;;;;;5040330;28;20264;-63
2023/09/18 02:43:56;;;;;;;5.95;2.30;;;23.20;99.90;;;;;;5040308;28;20241;-64
2023/09/18 02:46:23;;;;;;;7.18;2.70;;;23.20;99.90;;;;;;5033610;28;20210;-64
2023/09/18 02:48:51;;;;;;;7.18;2.38;;;23.30;99.90;;;;;;5041456;28;20209;-64
2023/09/18 02:51:18;;;;;;;6.55;2.35;;;23.30;99.90;;;;;;5043099;28;20210;-64
2023/09/18 02:53:44;;;;;;;3.78;2.22;;;23.10;99.90;;;;;;5045410;28;20314;-64
2023/09/18 02:56:11;;;;;;;6.32;2.42;;;23.00;99.90;;;;;;5045066;28;20228;-64
2023/09/18 02:58:38;;;;;;;8.23;2.40;;;22.70;99.90;;;;;;5043632;28;20213;-64
2023/09/18 03:01:07;;;;;;;6.72;2.40;;;22.60;99.90;;;;;;5044330;28;20240;-64
2023/09/18 03:03:35;;;;;;;3.63;2.08;;;22.50;99.90;;;;;;5046455;28;20235;-64
2023/09/18 03:06:03;;;;;;;3.75;2.38;;;22.40;99.90;;;;;;5046002;28;20228;-64
2023/09/18 03:08:30;;;;;;;8.10;2.60;;;22.20;99.90;;;;;;5043487;28;20213;-65
2023/09/18 03:10:57;;;;;;;6.03;2.78;;;22.20;99.90;;;;;;5043314;28;20233;-65
2023/09/18 03:13:24;;;;;;;5.95;2.80;;;22.10;99.90;;;;;;5035054;28;20198;-65
2023/09/18 03:15:51;;;;;;;6.20;2.85;;;21.90;99.90;;;;;;5043172;28;20730;-65
2023/09/18 03:18:17;;;;;;;7.28;2.90;;;21.70;99.90;;;;;;5045631;28;20560;-64
2023/09/18 03:20:45;;;;;;;4.53;2.88;;;21.60;99.90;;;;;;5046418;28;20224;-64
2023/09/18 03:23:14;;;;;;;5.00;2.65;;;21.50;99.90;;;;;;5044549;28;20316;-64
2023/09/18 03:25:40;;;;;;;5.03;2.63;;;21.40;99.90;;;;;;5043233;28;20233;-65
2023/09/18 03:28:07;;;;;;;5.35;2.47;;;21.30;99.90;;;;;;5043861;28;20202;-65
2023/09/18 03:30:34;;;;;;;6.47;3.08;;;21.20;99.90;;;;;;5046457;28;20230;-66
2023/09/18 03:33:01;;;;;;;4.35;2.63;;;21.20;99.90;;;;;;5045855;28;20197;-65
2023/09/18 03:35:30;;;;;;;5.20;3.30;;;21.20;99.90;;;;;;5042645;28;20293;-64
2023/09/18 03:37:56;;;;;;;5.68;3.20;;;21.10;99.90;;;;;;5042582;28;20531;-64
2023/09/18 03:40:25;;;;;;;6.38;3.35;;;21.10;99.90;;;;;;5045969;28;20237;-64
2023/09/18 03:42:52;;;;;;;3.55;3.13;;;21.00;99.90;;;;;;5045716;28;20718;-64
2023/09/18 03:45:19;;;;;;;7.63;3.58;;;20.90;99.90;;;;;;5042903;28;20240;-64
2023/09/18 03:47:46;;;;;;;5.20;2.88;;;20.90;99.90;;;;;;5042562;28;20239;-64
2023/09/18 03:50:13;;;;;;;6.80;3.70;;;20.90;99.90;;;;;;5044088;28;20283;-65
2023/09/18 03:52:40;;;;;;;7.75;3.03;;;20.90;99.90;;;;;;5045909;28;20235;-64
2023/09/18 03:55:08;;;;;;;8.23;3.50;;;20.80;99.90;;;;;;5044445;28;20252;-64
2023/09/18 03:57:37;;;;;;;7.80;3.65;;;20.90;99.90;;;;;;5042464;28;20228;-64
2023/09/18 04:00:05;;;;;;;8.55;3.22;;;20.90;99.90;;;;;;5042945;28;20226;-65
2023/09/18 04:02:32;;;;;;;8.93;2.90;;;20.90;99.90;;;;;;5045382;28;20613;-64
2023/09/18 04:04:59;;;;;;;7.18;4.10;;;21.00;99.90;;;;;;5044198;28;20209;-64
2023/09/18 04:07:25;;;;;;;6.63;3.72;;;21.00;99.90;;;;;;5033887;28;20202;-64
2023/09/18 04:09:52;;;;;;;8.80;4.50;;;21.00;99.90;;;;;;5042008;28;20245;-64
2023/09/18 04:12:19;;;;;;;7.97;2.90;;;21.10;99.90;;;;;;5044448;28;20249;-64
2023/09/18 04:14:47;;;;;;;7.80;3.42;;;21.10;99.90;;;;;;5045031;28;20233;-64
2023/09/18 04:17:15;;;;;;;8.23;2.83;;;21.20;99.90;;;;;;5043200;28;20214;-64
2023/09/18 04:19:43;;;;;;;6.20;2.67;;;21.30;99.90;;;;;;5041992;28;20225;-65
2023/09/18 04:22:09;;;;;;;9.00;2.75;;;21.30;99.90;;;;;;5050400;28;20201;-64
2023/09/18 04:24:36;;;;;;;5.88;2.70;;;21.50;99.90;;;;;;5041426;28;20202;-66
2023/09/18 04:27:03;;;;;;;9.35;3.53;;;21.50;99.90;;;;;;5042297;28;20206;-66
2023/09/18 04:29:30;;;;;;;8.82;3.22;;;21.60;99.90;;;;;;5045167;28;20233;-64
2023/09/18 04:31:59;;;;;;;11.13;3.17;;;21.60;99.90;;;;;;5044989;28;20297;-65
2023/09/18 04:34:25;;;;;;;8.48;2.70;;;21.60;99.90;;;;;;5033216;28;20203;-64
2023/09/18 04:36:52;;;;;;;10.23;2.88;;;21.70;99.90;;;;;;5041669;28;20675;-66
2023/09/18 04:39:19;;;;;;;7.20;4.03;;;21.70;99.90;;;;;;5043821;28;20226;-64
2023/09/18 04:41:46;;;;;;;6.80;2.97;;;21.60;99.90;;;;;;5045339;28;20589;-64
2023/09/18 04:44:14;;;;;;;5.45;2.83;;;21.50;99.90;;;;;;5042880;28;20605;-65
2023/09/18 04:46:42;;;;;;;7.97;3.35;;;21.50;99.90;;;;;;5041799;28;20210;-65
2023/09/18 04:49:11;;;;;;;8.52;3.17;;;21.50;99.90;;;;;;5042926;28;20237;-65
2023/09/18 04:51:38;;;;;;;7.43;2.83;;;21.30;99.90;;;;;;5045059;28;20206;-65
2023/09/18 04:54:06;;;;;;;7.47;3.35;;;21.20;99.90;;;;;;5043681;28;20493;-64
2023/09/18 04:56:33;;;;;;;8.75;3.03;;;21.00;99.90;;;;;;5041092;28;20690;-64
2023/09/18 04:59:00;;;;;;;6.95;2.90;;;20.90;99.90;;;;;;5041023;28;20222;-65
2023/09/18 05:01:27;;;;;;;9.43;3.28;;;21.00;99.90;;;;;;5033093;28;20203;-64
2023/09/18 05:03:54;;;;;;;9.27;2.60;;;21.00;99.90;;;;;;5040906;28;20280;-65
2023/09/18 05:06:22;;;;;;;5.97;2.83;;;21.00;99.90;;;;;;5043497;28;20206;-65
2023/09/18 05:08:49;;;;;;;6.75;2.95;;;21.10;99.90;;;;;;5044114;28;20201;-64
2023/09/18 05:11:16;;;;;;;6.00;3.13;;;21.20;99.90;;;;;;5042025;28;20209;-65
2023/09/18 05:13:43;;;;;;;7.15;4.45;;;21.10;99.90;;;;;;5040595;28;20221;-65
2023/09/18 05:16:10;;;;;;;10.30;3.50;;;21.20;99.90;;;;;;5041241;28;20206;-64
2023/09/18 05:18:37;;;;;;;7.97;3.25;;;21.20;99.90;;;;;;5043773;28;20202;-64
2023/09/18 05:21:05;;;;;;;6.90;2.88;;;21.20;99.90;;;;;;5043039;28;20205;-64
2023/09/18 05:23:33;;;;;;;8.32;2.83;;;21.20;99.90;;;;;;5039735;28;20222;-63
2023/09/18 05:26:00;;;;;;;12.93;3.20;;;21.30;99.90;;;;;;5039854;28;20199;-64
2023/09/18 05:28:27;;;;;;;7.75;2.97;;;21.30;99.90;;;;;;5032178;28;20202;-63
2023/09/18 05:30:54;;;;;;;13.85;3.38;;;21.30;99.90;;;;;;5040037;28;20226;-64
2023/09/18 05:33:21;;;;;;;7.63;2.92;;;21.40;99.90;;;;;;5042728;28;20209;-64
2023/09/18 05:35:48;;;;;;;7.22;2.78;;;21.40;99.90;;;;;;5043278;28;20285;-63
2023/09/18 05:38:17;;;;;;;10.65;3.13;;;21.30;99.90;;;;;;5041546;28;20305;-64
2023/09/18 05:40:46;;;;;;;6.82;3.00;;;21.10;99.90;;;;;;5040089;28;20505;-64
2023/09/18 05:43:13;;;;;;;9.38;3.60;;;21.20;99.90;;;;;;5041011;28;20222;-64
2023/09/18 05:45:40;;;;;;;8.52;3.47;;;21.30;99.90;;;;;;5043114;28;20202;-63
2023/09/18 05:48:07;;;;;;;8.07;3.20;;;21.40;99.90;;;;;;5042611;28;20292;-63
2023/09/18 05:50:35;;;;;;;8.75;3.15;;;21.40;99.90;;;;;;5039685;28;20739;-63
2023/09/18 05:53:03;;;;;;;8.00;3.03;;;21.40;99.90;;;;;;5040132;28;20198;-63
2023/09/18 05:55:30;;;;;;;7.45;2.72;;;21.40;99.90;;;;;;5031766;28;20203;-63
2023/09/18 05:57:59;;;;;;;10.45;2.85;;;21.40;99.90;;;;;;5040116;28;20207;-64
2023/09/18 06:00:25;;;;;;;11.38;4.00;;;21.40;99.90;;;;;;5042867;28;20221;-63
2023/09/18 06:02:52;;;;;;;11.27;2.85;;;21.60;99.90;;;;;;5042709;28;20663;-63
2023/09/18 06:05:21;;;;;;;10.30;3.47;;;21.70;99.90;;;;;;5040345;28;20292;-63
2023/09/18 06:07:48;;;;;;;8.30;2.70;;;21.80;99.90;;;;;;5039708;28;20210;-63
2023/09/18 06:10:16;;;;;;;7.00;3.00;;;21.90;99.90;;;;;;5040863;28;20234;-63
2023/09/18 06:12:43;;;;;;;13.88;3.75;;;22.00;99.90;;;;;;5042983;28;20480;-64
2023/09/18 06:15:12;;;;;;;13.88;3.83;;;22.10;99.90;;;;;;5041738;28;20205;-63
2023/09/18 06:17:40;;;;;;;8.70;2.97;;;22.10;99.90;;;;;;5039268;28;20207;-64
2023/09/18 06:20:09;;;;;;;5.85;3.15;;;22.20;99.90;;;;;;5039315;28;20280;-63
2023/09/18 06:22:36;;;;;;;11.40;2.85;;;22.20;99.90;;;;;;5042724;28;20202;-63
2023/09/18 06:25:03;;;;;;;8.57;2.75;;;22.20;99.90;;;;;;5042333;28;20214;-64
2023/09/18 06:27:31;;;;;;;6.68;2.72;;;22.20;99.90;;;;;;5030987;28;20668;-63
2023/09/18 06:29:58;;;;;;;8.00;2.75;;;22.30;99.90;;;;;;5038960;28;20268;-64
2023/09/18 06:32:26;;;;;;;5.00;2.80;;;22.40;99.90;;;;;;5041750;28;20208;-64
2023/09/18 06:34:53;;;;;;;7.03;2.55;;;22.40;99.90;;;;;;5042058;28;20209;-64
2023/09/18 06:37:20;;;;;;;6.15;2.53;;;22.50;99.90;;;;;;5040113;28;20236;-63
2023/09/18 06:39:47;;;;;;;6.15;2.35;;;22.50;99.90;;;;;;5039150;28;20219;-63
2023/09/18 06:42:13;;;;;;;8.40;2.67;;;22.60;99.90;;;;;;5040072;28;20244;-63
2023/09/18 06:44:40;;;;;;;10.80;2.88;;;22.50;99.90;;;;;;5042205;28;20271;-64
2023/09/18 06:47:07;;;;;;;9.40;2.40;;;22.50;99.90;;;;;;5041957;28;20202;-64
2023/09/18 06:49:35;;;;;;;7.07;2.70;;;22.60;99.90;;;;;;5038695;28;20317;-63
2023/09/18 06:52:02;;;;;;;11.35;3.10;;;22.60;99.90;;;;;;5039192;28;20206;-63
2023/09/18 06:54:29;;;;;;;8.82;2.85;;;22.70;99.90;;;;;;5041886;28;20194;-63
2023/09/18 06:56:56;;;;;;;10.60;2.95;;;22.60;99.90;;;;;;5042292;28;20213;-63
2023/09/18 06:59:23;;;;;;;7.53;2.35;;;22.60;99.90;;;;;;5039600;28;20221;-63
2023/09/18 07:01:50;;;;;;;7.22;2.20;;;22.70;99.90;;;;;;5039041;28;20232;-63
2023/09/18 07:04:16;;;;;;;9.50;2.35;;;22.70;99.90;;;;;;5040325;28;20267;-64
2023/09/18 07:06:46;;;;;;;6.88;2.30;;;22.70;99.90;;;;;;5042203;28;20689;-63
2023/09/18 07:09:13;;;;;;;8.00;2.35;;;22.80;99.90;;;;;;5041215;28;20228;-63
2023/09/18 07:11:40;;;;;;;9.98;2.60;;;22.80;99.90;;;;;;5038901;28;20576;-64
2023/09/18 07:14:07;;;;;;;10.85;2.25;;;22.90;99.90;;;;;;5038966;28;20210;-64
2023/09/18 07:16:34;;;;;;;8.15;2.55;;;22.90;99.90;;;;;;5042174;28;20206;-63
2023/09/18 07:19:04;;;;;;;10.90;4.88;;;23.00;99.90;;;;;;5042053;28;20221;-64
2023/09/18 07:21:31;;;;;;;7.45;2.67;;;23.00;99.90;;;;;;5030420;28;20256;-64
2023/09/18 07:23:59;;;;;;;6.75;2.20;;;23.20;99.90;;;;;;5038723;28;20222;-64
2023/09/18 07:26:25;;;;;;;8.10;2.20;;;23.20;99.90;;;;;;5041459;28;20300;-64
2023/09/18 07:28:52;;;;;;;7.30;3.28;;;23.30;99.90;;;;;;5041785;28;20197;-64
2023/09/18 07:31:19;;;;;;;8.77;2.08;;;23.50;99.90;;;;;;5040589;28;20210;-64
2023/09/18 07:33:46;;;;;;;5.53;2.15;;;23.70;99.90;;;;;;5038887;28;20207;-64
2023/09/18 07:36:15;;;;;;;6.30;2.08;;;23.80;99.90;;;;;;5040171;28;20652;-63
2023/09/18 07:38:43;;;;;;;6.03;1.90;;;23.80;99.90;;;;;;5042582;28;20256;-64
2023/09/18 07:41:11;;;;;;;9.10;1.90;;;23.90;99.90;;;;;;5044474;28;20758;-64
2023/09/18 07:43:39;;;;;;;6.13;1.70;;;23.90;99.90;;;;;;5042584;28;20307;-64
2023/09/18 07:46:05;;;;;;;5.50;1.88;;;23.90;99.90;;;;;;5043061;28;20206;-65
2023/09/18 07:48:32;;;;;;;6.97;1.52;;;23.90;99.90;;;;;;5035008;28;20202;-65
2023/09/18 07:50:59;;;;;;;8.88;1.83;;;23.80;99.90;;;;;;5065419;22;20226;-62
2023/09/18 07:53:26;;;;;;;6.43;1.73;;;23.90;99.90;;;;;;5044468;28;20202;-62
2023/09/18 07:55:58;;;;;;;7.85;2.13;;;23.90;99.90;;;;;;5045226;28;20209;-62
2023/09/18 07:58:27;;;;;;;9.07;2.60;;;24.00;99.90;;;;;;5042973;28;20205;-62
2023/09/18 08:00:54;;;;;;;5.05;2.00;;;24.00;99.90;;;;;;5025926;28;20676;-61
2023/09/18 08:03:22;;;;;;;10.00;3.15;;;24.20;99.90;;;;;;5023451;28;20218;-62
2023/09/18 08:05:50;;;;;;;10.00;3.38;;;24.50;99.90;;;;;;5025344;28;20238;-61
2023/09/18 08:08:17;;;;;;;5.47;2.03;;;24.80;99.90;;;;;;5023831;28;20236;-63
2023/09/18 08:10:44;;;;;;;6.35;1.95;;;25.00;99.90;;;;;;5021618;28;20237;-63
2023/09/18 08:13:10;;;;;;;5.18;1.90;;;25.30;99.90;;;;;;5022108;28;20435;-65
2023/09/18 08:15:38;;;;;;;4.55;1.38;;;25.60;99.90;;;;;;5025242;28;20203;-64
2023/09/18 08:18:05;;;;;;;4.28;1.63;;;25.80;99.90;;;;;;5022387;28;20399;-62
2023/09/18 08:20:32;;;;;;;5.55;1.67;;;26.10;99.90;;;;;;5021047;28;20349;-63
2023/09/18 08:23:01;;;;;;;6.38;1.95;;;26.40;99.90;;;;;;5020899;28;20207;-62
2023/09/18 08:25:27;;;;;;;5.90;1.65;;;26.60;99.90;;;;;;5023859;28;20714;-60
2023/09/18 08:27:54;;;;;;;4.60;2.13;;;26.80;99.90;;;;;;5024907;28;20210;-61
2023/09/18 08:30:21;;;;;;;4.72;1.67;;;27.00;99.90;;;;;;5022832;28;20232;-61
2023/09/18 08:32:49;;;;;;;7.47;1.90;;;27.10;99.90;;;;;;5021602;28;20285;-60
2023/09/18 08:35:16;;;;;;;7.28;1.60;;;27.00;99.90;;;;;;5021643;28;20622;-60
2023/09/18 08:37:43;;;;;;;4.43;1.80;;;27.00;99.90;;;;;;5024979;28;20225;-60
2023/09/18 08:40:13;;;;;;;7.40;1.83;;;26.50;99.90;;;;;;5024258;28;20226;-60
2023/09/18 08:42:41;;;;;;;8.68;1.67;;;26.50;99.90;;;;;;5021399;28;20297;-59
2023/09/18 08:45:10;;;;;;;4.53;1.50;;;26.20;99.90;;;;;;5020732;28;20226;-59
2023/09/18 08:47:39;;;;;;;4.63;1.40;;;25.90;99.90;;;;;;5024462;28;20333;-60
2023/09/18 08:50:09;;;;;;;2.58;0.80;;;25.80;99.90;;;;;;5023873;28;20234;-60
2023/09/18 08:52:36;;;;;;;3.08;1.13;;;25.60;99.90;;;;;;5020444;28;20207;-60
2023/09/18 08:55:05;;;;;;;3.75;1.38;;;25.40;99.90;;;;;;5020628;28;20587;-60
2023/09/18 08:57:32;;;;;;;4.30;1.08;;;25.40;99.90;;;;;;5020087;28;20681;-60
2023/09/18 09:00:05;;;;;;;4.35;1.35;;;25.40;99.90;;;;;;5020557;28;20229;-60
2023/09/18 09:02:32;;;;;;;4.32;1.33;;;25.20;99.90;;;;;;5023797;28;20202;-60
2023/09/18 09:04:59;;;;;;;6.05;1.17;;;25.20;99.90;;;;;;5023647;28;20253;-59
2023/09/18 09:07:28;;;;;;;2.85;1.10;;;25.10;99.90;;;;;;5021688;28;20211;-60
2023/09/18 09:09:55;;;;;;;3.85;1.23;;;25.00;99.90;;;;;;5020040;28;20611;-60
2023/09/18 09:12:55;;;;;;;2.40;1.00;;;24.80;99.90;;;;;;5021974;28;20214;-60
2023/09/18 09:15:23;;;;;;;4.43;1.20;;;24.80;99.90;;;;;;5021712;28;20241;-60
2023/09/18 09:17:50;;;;;;;6.30;1.30;;;24.70;99.90;;;;;;5020557;28;20226;-60
2023/09/18 09:20:19;;;;;;;7.32;1.10;;;24.60;99.90;;;;;;5021586;28;20579;-60
2023/09/18 09:22:47;;;;;;;2.05;0.80;;;24.30;99.90;;;;;;5023244;28;20234;-60
2023/09/18 09:25:31;;;;;;;4.70;1.05;;;24.10;99.90;;;;;;5022327;28;20230;-60
2023/09/18 09:27:58;;;;;;;5.88;1.50;;;23.90;99.90;;;;;;5018640;28;20265;-60
2023/09/18 09:30:27;;;;;;;7.10;1.40;;;23.80;99.90;;;;;;5022309;28;20233;-59
2023/09/18 09:32:56;;;;;;;7.50;1.70;;;23.70;99.90;;;;;;5023600;28;20198;-59
2023/09/18 09:35:24;;;;;;;2.80;1.00;;;23.60;99.90;;;;;;5020255;28;20202;-59
2023/09/18 09:37:52;;;;;;;4.90;1.20;;;23.50;99.90;;;;;;5020184;28;20583;-59
2023/09/18 09:40:21;;;;;;;3.78;0.95;;;23.50;99.90;;;;;;5021110;28;20231;-60
2023/09/18 09:42:48;;;;;;;4.95;3.25;;;23.50;99.90;;;;;;5023311;28;20690;-60
2023/09/18 09:45:16;;;;;;;3.50;1.15;;;23.60;99.90;;;;;;5022156;28;20218;-59
2023/09/18 09:47:43;;;;;;;1.50;1.00;;;23.70;99.90;;;;;;5019761;28;20676;-59
2023/09/18 09:50:13;;;;;;;3.05;1.02;;;23.80;99.90;;;;;;5019753;28;20314;-59
2023/09/18 09:52:47;;;;;;;4.40;1.95;;;23.90;99.90;;;;;;5023068;28;20252;-59
2023/09/18 09:55:24;;;;;;;4.07;1.58;;;24.00;99.90;;;;;;5022739;28;20230;-59
2023/09/18 09:57:53;;;;;;;2.95;1.25;;;24.10;99.90;;;;;;5019945;28;20203;-59
2023/09/18 10:00:26;;;;;;;9.18;6.68;;;24.00;99.90;;;;;;5020756;28;20246;-59
2023/09/18 10:02:56;;;;;;;1.98;1.05;;;24.00;99.90;;;;;;5022411;28;20210;-59
2023/09/18 10:05:27;;;;;;;3.47;1.13;;;24.10;99.90;;;;;;5021558;28;20284;-59
2023/09/18 10:07:54;;;;;;;2.28;1.10;;;24.20;99.90;;;;;;5019922;28;20252;-59
2023/09/18 10:10:22;;;;;;;3.40;1.13;;;24.30;99.90;;;;;;5021366;28;20235;-60
2023/09/18 10:12:50;;;;;;;1.45;0.93;;;24.40;99.90;;;;;;5023025;28;20213;-58
2023/09/18 10:15:19;;;;;;;4.22;1.30;;;24.40;99.90;;;;;;5021830;28;20233;-58
2023/09/18 10:17:50;;;;;;;2.35;1.13;;;24.50;99.90;;;;;;5019309;28;20593;-59
2023/09/18 10:20:20;;;;;;;1.48;0.98;;;24.60;99.90;;;;;;5020459;28;20229;-58
2023/09/18 10:22:52;;;;;;;2.67;1.30;;;24.80;99.90;;;;;;5022832;28;20221;-59
2023/09/18 10:25:24;;;;;;;3.03;1.23;;;24.80;99.90;;;;;;5021557;28;20221;-59
2023/09/18 10:27:53;;;;;;;4.22;1.10;;;24.60;99.90;;;;;;5019655;28;20207;-59
2023/09/18 10:30:22;;;;;;;5.70;3.17;;;24.60;99.90;;;;;;5020403;28;20305;-60
2023/09/18 10:32:50;;;;;;;4.05;1.13;;;24.40;99.90;;;;;;5022678;28;20676;-58
2023/09/18 10:35:17;;;;;;;2.78;1.23;;;24.20;99.90;;;;;;5021816;28;20280;-60
2023/09/18 10:37:44;;;;;;;4.30;1.15;;;23.90;99.90;;;;;;5019498;28;20199;-61
2023/09/18 10:40:11;;;;;;;5.25;2.42;;;23.80;99.90;;;;;;5019413;28;20226;-59
2023/09/18 10:42:41;;;;;;;4.05;1.63;;;23.70;99.90;;;;;;5019101;28;20206;-59
2023/09/18 10:45:10;;;;;;;3.17;1.33;;;23.70;99.90;;;;;;5019219;28;20230;-59
2023/09/18 10:47:39;;;;;;;3.60;1.38;;;23.60;99.90;;;;;;5018922;28;20661;-59
2023/09/18 10:50:07;;;;;;;3.55;1.20;;;23.50;99.90;;;;;;5018737;28;20290;-61
2023/09/18 10:52:34;;;;;;;3.45;1.30;;;23.30;99.90;;;;;;5021882;28;20209;-61
2023/09/18 10:55:02;;;;;;;1.92;0.95;;;23.20;99.90;;;;;;5022176;28;20201;-61
2023/09/18 10:57:29;;;;;;;3.58;1.17;;;23.10;99.90;;;;;;5019886;28;20746;-59
2023/09/18 10:59:58;;;;;;;2.85;1.10;;;23.00;99.90;;;;;;5019017;28;20219;-61
2023/09/18 11:02:25;;;;;;;2.78;1.20;;;22.90;99.90;;;;;;5020408;28;20672;-58
2023/09/18 11:04:55;;;;;;;3.92;1.00;;;22.80;99.90;;;;;;5022146;28;20360;-61
2023/09/18 11:07:22;;;;;;;5.25;1.00;;;22.80;99.90;;;;;;5021112;28;20250;-57
2023/09/18 11:09:49;;;;;;;1.73;0.88;;;22.70;99.90;;;;;;5018942;28;20231;-57
2023/09/18 11:12:18;;;;;;;3.15;0.90;;;22.60;99.90;;;;;;5019846;28;20287;-58
2023/09/18 11:14:48;;;;;;;2.75;1.20;;;22.60;99.90;;;;;;5023747;28;20276;-58
2023/09/18 11:17:34;;;;;;;2.65;0.90;;;22.50;99.90;;;;;;5026414;28;20206;-59
2023/09/18 11:20:08;;;;;;;2.08;1.10;;;22.40;99.90;;;;;;5023012;28;20225;-58
2023/09/18 11:22:35;;;;;;;1.98;1.10;;;22.30;99.90;;;;;;5025977;28;20202;-58
2023/09/18 11:25:31;;;;;;;2.10;1.10;;;22.20;99.90;;;;;;5025935;28;20248;-58
2023/09/18 11:27:58;;;;;;;2.65;0.80;;;22.20;99.90;;;;;;5022969;28;20257;-58
2023/09/18 11:30:25;;;;;;;1.92;1.02;;;22.10;99.90;;;;;;5024065;28;20237;-57
2023/09/18 11:32:55;;;;;;;3.72;1.08;;;22.00;99.90;;;;;;5026279;28;20206;-57
2023/09/18 11:35:22;;;;;;;4.13;1.10;;;21.90;99.90;;;;;;5025301;28;20225;-58
2023/09/18 11:38:05;;;;;;;2.15;1.17;;;21.90;99.90;;;;;;5023083;28;20286;-58
2023/09/18 11:40:38;;;;;;;1.67;0.90;;;21.90;99.90;;;;;;5025180;28;20227;-61
2023/09/18 11:43:29;;;;;;;2.13;1.10;;;22.00;99.90;;;;;;5025678;28;20386;-60
2023/09/18 11:45:57;;;;;;;3.92;0.95;;;22.20;99.90;;;;;;5022651;28;20250;-60
2023/09/18 11:48:27;;;;;;;1.13;0.70;;;22.40;99.90;;;;;;5024040;28;20214;-61
2023/09/18 11:50:55;;;;;;;2.03;0.80;;;22.40;99.90;;;;;;5025632;28;20376;-60
2023/09/18 11:53:24;;;;;;;1.48;0.75;;;22.40;99.90;;;;;;5024650;28;20238;-64
2023/09/18 11:55:51;;;;;;;4.22;1.20;;;22.30;99.90;;;;;;5021989;28;20210;-61
2023/09/18 11:58:19;;;;;;;1.50;0.85;;;22.10;99.90;;;;;;5023241;28;20215;-65
2023/09/18 12:00:46;;;;;;;2.40;0.63;;;22.00;99.90;;;;;;5025615;28;20268;-62
2023/09/18 12:03:25;;;;;;;2.97;1.00;;;22.10;99.90;;;;;;5025562;28;20218;-65
2023/09/18 12:05:56;;;;;;;0.98;0.68;;;22.20;99.90;;;;;;5022110;28;20600;-60
2023/09/18 12:08:26;;;;;;;3.10;0.85;;;22.30;99.90;;;;;;5023759;28;20236;-60
2023/09/18 12:10:53;;;;;;;3.10;0.98;;;22.60;99.90;;;;;;5025423;28;20218;-59
2023/09/18 12:13:20;;;;;;;2.95;0.80;;;22.70;99.90;;;;;;5024180;28;20206;-60
2023/09/18 12:15:48;;;;;;;1.55;0.80;;;23.00;99.90;;;;;;5021961;28;20203;-59
2023/09/18 12:18:16;;;;;;;1.17;0.70;;;23.20;99.90;;;;;;5021871;28;20207;-62
2023/09/18 12:20:47;;;;;;;1.10;0.80;;;23.40;99.90;;;;;;5025152;28;20234;-60
2023/09/18 12:23:15;;;;;;;2.58;0.80;;;23.50;99.90;;;;;;5025312;28;20206;-60
2023/09/18 12:25:42;;;;;;;3.42;0.82;;;23.50;99.90;;;;;;5024265;28;20699;-60
2023/09/18 12:28:09;;;;;;;2.53;0.80;;;23.40;99.90;;;;;;5025175;28;20590;-61
2023/09/18 12:30:36;;;;;;;3.33;0.90;;;23.50;99.90;;;;;;5022067;28;20735;-59
2023/09/18 12:33:03;;;;;;;1.30;0.90;;;23.60;99.90;;;;;;5021844;28;20211;-61
2023/09/18 12:35:30;;;;;;;2.67;0.73;;;23.70;99.90;;;;;;5024230;28;20203;-59
2023/09/18 12:37:58;;;;;;;4.80;1.02;;;23.70;99.90;;;;;;5025268;28;20202;-59
2023/09/18 12:40:28;;;;;;;1.50;0.80;;;23.70;99.90;;;;;;5023913;28;20252;-61
2023/09/18 12:42:57;;;;;;;2.45;1.00;;;23.60;99.90;;;;;;5021745;28;20242;-60
2023/09/18 12:45:25;;;;;;;1.40;0.90;;;23.60;99.90;;;;;;5022731;28;20234;-61
2023/09/18 12:47:52;;;;;;;2.25;1.13;;;23.60;99.90;;;;;;5024698;28;20210;-60
2023/09/18 12:50:19;;;;;;;1.42;1.00;;;23.70;99.90;;;;;;5024081;28;20816;-60